createdAt,value
2022-09-02T00:04:10.386Z,12.40
2022-09-02T00:09:04.234Z,12.30
2022-09-02T00:13:57.319Z,12.50
2022-09-02T00:18:51.962Z,12.50
2022-09-02T00:23:45.406Z,12.40
2022-09-02T00:28:38.995Z,12.20
2022-09-02T00:33:37.449Z,12.10
2022-09-02T00:38:39.654Z,12.10
2022-09-02T00:43:52.849Z,12.00
2022-09-02T00:48:59.976Z,12.00
2022-09-02T00:53:53.535Z,11.90
2022-09-02T00:58:46.769Z,11.80
2022-09-02T01:03:41.406Z,11.70
2022-09-02T01:08:37.238Z,11.60
2022-09-02T01:13:32.110Z,11.60
2022-09-02T01:18:31.341Z,11.70
2022-09-02T01:23:24.571Z,11.60
2022-09-02T01:28:19.204Z,11.50
2022-09-02T01:33:12.213Z,11.40
2022-09-02T01:39:01.251Z,11.40
2022-09-02T01:45:08.370Z,11.40
2022-09-02T01:51:15.613Z,11.40
2022-09-02T01:57:24.248Z,11.40
2022-09-02T02:03:31.320Z,11.30
2022-09-02T02:09:38.833Z,11.10
2022-09-02T02:15:46.060Z,11.10
2022-09-02T02:21:53.333Z,11.00
2022-09-02T02:28:00.468Z,11.10
2022-09-02T02:34:09.732Z,10.90
2022-09-02T02:40:17.025Z,10.90
2022-09-02T02:46:25.290Z,10.80
2022-09-02T02:52:32.673Z,10.70
2022-09-02T02:58:39.855Z,10.80
2022-09-02T03:04:47.316Z,10.80
2022-09-02T03:10:54.202Z,10.60
2022-09-02T03:17:01.485Z,10.60
2022-09-02T03:23:08.391Z,10.60
2022-09-02T03:29:15.837Z,10.60
2022-09-02T03:34:26.789Z,10.60
2022-09-02T03:39:22.086Z,10.60
2022-09-02T03:44:14.584Z,10.60
2022-09-02T03:49:09.574Z,10.60
2022-09-02T03:54:04.173Z,10.70
2022-09-02T03:58:56.984Z,10.70
2022-09-02T04:03:52.557Z,10.80
2022-09-02T04:08:50.005Z,10.90
2022-09-02T04:13:46.076Z,10.70
2022-09-02T04:18:42.332Z,10.50
2022-09-02T04:23:36.866Z,10.50
2022-09-02T04:28:29.948Z,10.40
2022-09-02T04:33:22.589Z,10.40
2022-09-02T04:38:16.143Z,10.40
2022-09-02T04:43:08.921Z,10.50
2022-09-02T04:48:01.458Z,10.70
2022-09-02T04:52:55.947Z,10.90
2022-09-02T04:57:48.391Z,10.90
2022-09-02T05:02:41.604Z,11.00
2022-09-02T05:07:37.303Z,11.20
2022-09-02T05:12:31.423Z,11.30
2022-09-02T05:17:25.213Z,11.50
2022-09-02T05:22:18.213Z,11.60
2022-09-02T05:27:10.741Z,11.70
2022-09-02T05:32:04.523Z,11.80
2022-09-02T05:36:58.185Z,12.00
2022-09-02T05:41:54.820Z,12.20
2022-09-02T05:46:49.039Z,12.40
2022-09-02T05:51:42.945Z,12.60
2022-09-02T05:56:37.403Z,13.00
2022-09-02T06:01:30.786Z,13.10
2022-09-02T06:06:24.525Z,13.70
2022-09-02T06:11:19.248Z,18.00
2022-09-02T06:16:20.458Z,19.70
2022-09-02T06:21:16.005Z,24.60
2022-09-02T06:26:14.456Z,28.20
2022-09-02T06:31:23.375Z,31.70
2022-09-02T06:36:19.506Z,33.30
2022-09-02T06:41:17.082Z,35.60
2022-09-02T06:46:17.271Z,35.90
2022-09-02T06:51:22.142Z,36.70
2022-09-02T06:56:16.044Z,37.30
2022-09-02T07:01:10.426Z,37.40
2022-09-02T07:06:10.021Z,38.80
2022-09-02T07:11:14.981Z,39.20
2022-09-02T07:16:08.905Z,38.70
2022-09-02T07:21:02.662Z,38.20
2022-09-02T07:25:58.737Z,39.30
2022-09-02T07:30:59.537Z,40.00
2022-09-02T07:35:53.763Z,41.10
2022-09-02T07:40:49.400Z,40.80
2022-09-02T07:45:43.954Z,41.90
2022-09-02T07:50:38.055Z,42.10
2022-09-02T07:55:35.560Z,42.10
2022-09-02T08:00:30.560Z,41.20
2022-09-02T08:05:31.611Z,40.20
2022-09-02T08:10:26.056Z,39.30
2022-09-02T08:15:20.601Z,38.00
2022-09-02T08:20:14.663Z,37.30
2022-09-02T08:25:08.438Z,38.60
2022-09-02T08:30:01.811Z,39.10
2022-09-02T08:34:54.814Z,39.40
2022-09-02T08:39:49.314Z,37.00
2022-09-02T08:44:42.518Z,36.80
2022-09-02T08:49:42.339Z,36.20
2022-09-02T08:55:00.966Z,32.20
2022-09-02T08:59:56.278Z,28.80
2022-09-02T09:05:42.860Z,26.40
2022-09-02T09:11:49.782Z,25.50
2022-09-02T09:24:16.472Z,25.80
2022-09-02T09:30:23.627Z,26.30
2022-09-02T09:36:32.596Z,31.90
2022-09-02T09:42:39.847Z,35.50
2022-09-02T09:48:46.904Z,36.40
2022-09-02T09:54:55.707Z,36.40
2022-09-02T10:01:02.899Z,31.70
2022-09-02T10:07:11.224Z,29.90
2022-09-02T10:19:27.153Z,26.30
2022-09-02T10:25:34.318Z,25.50
2022-09-02T10:31:41.435Z,27.50
2022-09-02T10:37:48.677Z,28.80
2022-09-02T10:43:57.429Z,26.70
2022-09-02T10:50:04.750Z,26.30
2022-09-02T10:56:11.982Z,26.80
2022-09-02T11:02:18.979Z,27.00
2022-09-02T11:08:15.290Z,27.10
2022-09-02T11:13:37.471Z,27.00
2022-09-02T11:18:49.506Z,27.90
2022-09-02T11:23:55.835Z,29.20
2022-09-02T11:29:25.310Z,27.80
2022-09-02T11:34:37.975Z,27.00
2022-09-02T11:39:36.565Z,26.70
2022-09-02T11:45:15.844Z,26.60
2022-09-02T11:50:44.986Z,25.40
2022-09-02T11:55:53.098Z,24.50
2022-09-02T12:01:00.333Z,24.60
2022-09-02T12:06:14.575Z,24.80
2022-09-02T12:11:08.339Z,25.00
2022-09-02T12:16:16.036Z,25.00
2022-09-02T12:21:18.250Z,24.60
2022-09-02T12:26:17.900Z,24.50
2022-09-02T12:31:15.760Z,24.50
2022-09-02T12:36:11.142Z,24.60
2022-09-02T12:41:06.158Z,25.10
2022-09-02T12:46:17.786Z,25.10
2022-09-02T12:51:10.886Z,24.80
2022-09-02T12:56:24.316Z,24.20
2022-09-02T13:01:25.660Z,24.10
2022-09-02T13:06:39.180Z,23.70
2022-09-02T13:11:55.508Z,24.00
2022-09-02T13:17:32.746Z,23.50
2022-09-02T13:22:18.571Z,23.40
2022-09-02T13:27:43.285Z,23.00
2022-09-02T13:32:37.139Z,23.10
2022-09-02T13:37:39.852Z,23.00
2022-09-02T13:42:33.138Z,23.10
2022-09-02T13:47:25.519Z,23.00
2022-09-02T13:52:23.983Z,22.80
2022-09-02T13:57:29.714Z,22.80
2022-09-02T14:02:36.586Z,23.60
2022-09-02T14:07:33.409Z,24.30
2022-09-02T14:12:27.502Z,24.20
2022-09-02T14:17:28.127Z,23.90
2022-09-02T14:22:31.008Z,23.60
2022-09-02T14:27:24.837Z,23.20
2022-09-02T14:32:26.643Z,23.00
2022-09-02T14:37:28.758Z,23.20
2022-09-02T14:42:21.502Z,23.50
2022-09-02T14:47:17.168Z,23.50
2022-09-02T14:52:20.230Z,23.40
2022-09-02T14:57:35.576Z,23.30
2022-09-02T15:02:27.814Z,22.90
2022-09-02T15:07:20.453Z,22.70
2022-09-02T15:12:14.146Z,22.70
2022-09-02T15:17:16.941Z,22.70
2022-09-02T15:22:09.298Z,22.60
2022-09-02T15:27:01.603Z,22.50
2022-09-02T15:31:54.775Z,22.80
2022-09-02T15:36:47.853Z,22.80
2022-09-02T15:41:43.819Z,22.90
2022-09-02T15:46:37.419Z,22.80
2022-09-02T15:51:29.934Z,22.60
2022-09-02T15:56:24.691Z,22.30
2022-09-02T16:01:18.593Z,22.10
2022-09-02T16:06:13.513Z,21.90
2022-09-02T16:11:09.240Z,21.70
2022-09-02T16:16:13.270Z,21.60
2022-09-02T16:21:08.953Z,21.50
2022-09-02T16:26:31.156Z,21.50
2022-09-02T16:31:25.893Z,21.40
2022-09-02T16:36:18.367Z,21.40
2022-09-02T16:41:27.605Z,21.30
2022-09-02T16:46:20.249Z,21.20
2022-09-02T16:51:12.725Z,21.00
2022-09-02T16:56:05.194Z,20.80
2022-09-02T17:00:59.846Z,20.60
2022-09-02T17:05:52.184Z,20.40
2022-09-02T17:10:44.735Z,20.20
2022-09-02T17:15:37.257Z,20.20
2022-09-02T17:20:30.870Z,20.10
2022-09-02T17:25:23.261Z,20.10
2022-09-02T17:30:16.109Z,20.00
2022-09-02T17:35:10.360Z,19.80
2022-09-02T17:40:03.763Z,19.60
2022-09-02T17:44:56.897Z,19.40
2022-09-02T17:49:50.645Z,19.20
2022-09-02T17:54:43.754Z,19.10
2022-09-02T17:59:44.843Z,18.90
2022-09-02T18:05:05.020Z,18.70
2022-09-02T18:09:58.208Z,18.60
2022-09-02T18:14:58.248Z,18.50
2022-09-02T18:20:38.375Z,18.40
2022-09-02T18:25:57.426Z,18.30
2022-09-02T18:31:08.359Z,18.40
2022-09-02T18:36:24.872Z,18.40
2022-09-02T18:41:30.498Z,18.40
2022-09-02T18:46:26.724Z,18.40
2022-09-02T18:51:41.243Z,18.30
2022-09-02T18:56:37.061Z,18.20
2022-09-02T19:01:35.576Z,18.20
2022-09-02T19:06:36.225Z,18.20
2022-09-02T19:11:32.431Z,18.20
2022-09-02T19:16:32.275Z,18.20
2022-09-02T19:21:43.601Z,18.20
2022-09-02T19:26:38.079Z,18.20
2022-09-02T19:31:31.858Z,18.20
2022-09-02T19:36:29.426Z,18.20
2022-09-02T19:41:26.881Z,18.10
2022-09-02T19:47:04.014Z,18.10
2022-09-02T19:51:35.775Z,18.10
2022-09-02T19:56:28.386Z,17.80
2022-09-02T20:01:21.302Z,17.70
2022-09-02T20:06:13.729Z,17.70
2022-09-02T20:11:07.024Z,17.60
2022-09-02T20:16:01.807Z,17.60
2022-09-02T20:20:57.512Z,17.50
2022-09-02T20:26:09.102Z,17.50
2022-09-02T20:31:25.130Z,17.50
2022-09-02T20:36:58.070Z,17.30
2022-09-02T20:42:27.966Z,17.20
2022-09-02T20:47:29.244Z,17.00
2022-09-02T20:52:36.874Z,17.00
2022-09-02T20:57:40.931Z,17.00
2022-09-02T21:02:39.536Z,17.10
2022-09-02T21:07:46.976Z,17.10
2022-09-02T21:12:44.129Z,17.20
2022-09-02T21:17:55.219Z,17.20
2022-09-02T21:23:01.871Z,17.20
2022-09-02T21:28:15.745Z,17.20
2022-09-02T21:33:11.927Z,17.20
2022-09-02T21:38:10.553Z,17.20
2022-09-02T21:43:30.262Z,17.10
2022-09-02T21:48:35.230Z,17.10
2022-09-02T21:53:30.463Z,17.00
2022-09-02T21:58:22.788Z,16.80
2022-09-02T22:03:30.796Z,16.60
2022-09-02T22:08:48.570Z,16.50
2022-09-02T22:13:42.167Z,16.50
2022-09-02T22:18:52.488Z,16.40
2022-09-02T22:23:44.735Z,16.30
2022-09-02T22:28:43.304Z,16.20
2022-09-02T22:33:49.139Z,15.90
2022-09-02T22:38:48.123Z,15.70
2022-09-02T22:44:02.835Z,15.50
2022-09-02T22:49:21.049Z,15.30
2022-09-02T22:54:13.295Z,15.10
2022-09-02T22:59:30.386Z,14.90
2022-09-02T23:04:45.658Z,14.70
2022-09-02T23:09:38.107Z,14.60
2022-09-02T23:15:04.323Z,14.50
2022-09-02T23:20:21.796Z,14.50
2022-09-02T23:25:23.336Z,14.40
2022-09-02T23:30:19.207Z,14.60
2022-09-02T23:35:21.049Z,14.70
2022-09-02T23:40:37.733Z,14.70
2022-09-02T23:45:34.956Z,14.80
2022-09-02T23:51:10.608Z,14.70
2022-09-02T23:56:05.695Z,14.70
